sensor_id;sensor_type;location;lat;lon;timestamp;temperature;humidity
65048;DHT22;52089;51.362;-2.384;2022-09-09T00:00:35;15.10;99.90
65048;DHT22;52089;51.362;-2.384;2022-09-09T00:04:31;15.10;99.90
65048;DHT22;52089;51.362;-2.384;2022-09-09T00:08:22;15.20;99.90
65048;DHT22;52089;51.362;-2.384;2022-09-09T00:12:16;15.20;99.90
65048;DHT22;52089;51.362;-2.384;2022-09-09T00:16:09;15.20;99.90
65048;DHT22;52089;51.362;-2.384;2022-09-09T00:24:08;15.30;99.90
65048;DHT22;52089;51.362;-2.384;2022-09-09T00:27:52;15.30;99.90
65048;DHT22;52089;51.362;-2.384;2022-09-09T00:31:34;15.30;99.90
65048;DHT22;52089;51.362;-2.384;2022-09-09T00:35:21;15.40;99.90
65048;DHT22;52089;51.362;-2.384;2022-09-09T00:39:04;15.30;99.90
65048;DHT22;52089;51.362;-2.384;2022-09-09T00:42:52;15.30;99.90
65048;DHT22;52089;51.362;-2.384;2022-09-09T00:46:48;15.40;99.90
65048;DHT22;52089;51.362;-2.384;2022-09-09T00:50:55;15.30;99.90
65048;DHT22;52089;51.362;-2.384;2022-09-09T00:59:12;15.30;99.90
65048;DHT22;52089;51.362;-2.384;2022-09-09T01:03:17;15.40;99.90
65048;DHT22;52089;51.362;-2.384;2022-09-09T01:07:16;15.20;99.90
65048;DHT22;52089;51.362;-2.384;2022-09-09T01:10:59;15.10;99.90
65048;DHT22;52089;51.362;-2.384;2022-09-09T01:14:45;15.10;99.90
65048;DHT22;52089;51.362;-2.384;2022-09-09T01:18:39;15.00;99.90
65048;DHT22;52089;51.362;-2.384;2022-09-09T01:30:13;15.00;99.90
65048;DHT22;52089;51.362;-2.384;2022-09-09T01:33:55;15.00;99.90
65048;DHT22;52089;51.362;-2.384;2022-09-09T01:37:37;15.00;99.90
65048;DHT22;52089;51.362;-2.384;2022-09-09T01:41:19;15.00;99.90
65048;DHT22;52089;51.362;-2.384;2022-09-09T01:45:01;15.00;99.90
65048;DHT22;52089;51.362;-2.384;2022-09-09T01:48:43;14.90;99.90
65048;DHT22;52089;51.362;-2.384;2022-09-09T01:52:26;14.90;99.90
65048;DHT22;52089;51.362;-2.384;2022-09-09T01:56:23;14.80;99.90
65048;DHT22;52089;51.362;-2.384;2022-09-09T02:00:10;14.80;99.90
65048;DHT22;52089;51.362;-2.384;2022-09-09T02:03:56;14.70;99.90
65048;DHT22;52089;51.362;-2.384;2022-09-09T02:07:41;14.70;99.90
65048;DHT22;52089;51.362;-2.384;2022-09-09T02:11:26;14.60;99.90
65048;DHT22;52089;51.362;-2.384;2022-09-09T02:15:20;14.50;99.90
65048;DHT22;52089;51.362;-2.384;2022-09-09T02:19:12;14.40;99.90
65048;DHT22;52089;51.362;-2.384;2022-09-09T02:22:56;14.30;99.90
65048;DHT22;52089;51.362;-2.384;2022-09-09T02:26:40;14.30;99.90
65048;DHT22;52089;51.362;-2.384;2022-09-09T02:30:23;14.30;99.90
65048;DHT22;52089;51.362;-2.384;2022-09-09T02:34:07;14.20;99.90
65048;DHT22;52089;51.362;-2.384;2022-09-09T02:37:54;14.10;99.90
65048;DHT22;52089;51.362;-2.384;2022-09-09T02:41:40;14.00;99.90
65048;DHT22;52089;51.362;-2.384;2022-09-09T02:45:26;14.00;99.90
65048;DHT22;52089;51.362;-2.384;2022-09-09T02:49:16;14.00;99.90
65048;DHT22;52089;51.362;-2.384;2022-09-09T02:56:53;14.00;99.90
65048;DHT22;52089;51.362;-2.384;2022-09-09T03:00:38;14.00;99.90
65048;DHT22;52089;51.362;-2.384;2022-09-09T03:04:21;14.00;99.90
65048;DHT22;52089;51.362;-2.384;2022-09-09T03:08:04;14.00;99.90
65048;DHT22;52089;51.362;-2.384;2022-09-09T03:11:46;14.10;99.90
65048;DHT22;52089;51.362;-2.384;2022-09-09T03:15:28;14.10;99.90
65048;DHT22;52089;51.362;-2.384;2022-09-09T03:19:11;14.10;99.90
65048;DHT22;52089;51.362;-2.384;2022-09-09T03:22:53;14.10;99.90
65048;DHT22;52089;51.362;-2.384;2022-09-09T03:26:35;14.20;99.90
65048;DHT22;52089;51.362;-2.384;2022-09-09T03:30:19;14.20;99.90
65048;DHT22;52089;51.362;-2.384;2022-09-09T03:34:00;14.20;99.90
65048;DHT22;52089;51.362;-2.384;2022-09-09T03:37:42;14.30;99.90
65048;DHT22;52089;51.362;-2.384;2022-09-09T03:41:25;14.30;99.90
65048;DHT22;52089;51.362;-2.384;2022-09-09T03:45:09;14.30;99.90
65048;DHT22;52089;51.362;-2.384;2022-09-09T03:48:52;14.30;99.90
65048;DHT22;52089;51.362;-2.384;2022-09-09T03:52:38;14.40;99.90
65048;DHT22;52089;51.362;-2.384;2022-09-09T03:56:20;14.40;99.90
65048;DHT22;52089;51.362;-2.384;2022-09-09T04:00:07;14.40;99.90
65048;DHT22;52089;51.362;-2.384;2022-09-09T04:03:49;14.50;99.90
65048;DHT22;52089;51.362;-2.384;2022-09-09T04:07:31;14.50;99.90
65048;DHT22;52089;51.362;-2.384;2022-09-09T04:11:14;14.60;99.90
65048;DHT22;52089;51.362;-2.384;2022-09-09T04:14:56;14.60;99.90
65048;DHT22;52089;51.362;-2.384;2022-09-09T04:18:38;14.60;99.90
65048;DHT22;52089;51.362;-2.384;2022-09-09T04:22:20;14.60;99.90
65048;DHT22;52089;51.362;-2.384;2022-09-09T04:26:04;14.70;99.90
65048;DHT22;52089;51.362;-2.384;2022-09-09T04:29:46;14.70;99.90
65048;DHT22;52089;51.362;-2.384;2022-09-09T04:33:28;14.60;99.90
65048;DHT22;52089;51.362;-2.384;2022-09-09T04:37:09;14.50;99.90
65048;DHT22;52089;51.362;-2.384;2022-09-09T04:40:51;14.50;99.90
65048;DHT22;52089;51.362;-2.384;2022-09-09T04:44:35;14.50;99.90
65048;DHT22;52089;51.362;-2.384;2022-09-09T04:48:18;14.50;99.90
65048;DHT22;52089;51.362;-2.384;2022-09-09T04:51:59;14.50;99.90
65048;DHT22;52089;51.362;-2.384;2022-09-09T04:55:42;14.50;99.90
65048;DHT22;52089;51.362;-2.384;2022-09-09T04:59:23;14.50;99.90
65048;DHT22;52089;51.362;-2.384;2022-09-09T05:03:06;14.40;99.90
65048;DHT22;52089;51.362;-2.384;2022-09-09T05:06:49;14.40;99.90
65048;DHT22;52089;51.362;-2.384;2022-09-09T05:10:33;14.40;99.90
65048;DHT22;52089;51.362;-2.384;2022-09-09T05:14:14;14.40;99.90
65048;DHT22;52089;51.362;-2.384;2022-09-09T05:17:58;14.40;99.90
65048;DHT22;52089;51.362;-2.384;2022-09-09T05:21:40;14.30;99.90
65048;DHT22;52089;51.362;-2.384;2022-09-09T05:25:23;14.40;99.90
65048;DHT22;52089;51.362;-2.384;2022-09-09T05:29:08;14.30;99.90
65048;DHT22;52089;51.362;-2.384;2022-09-09T05:32:50;14.30;99.90
65048;DHT22;52089;51.362;-2.384;2022-09-09T05:36:32;14.30;99.90
65048;DHT22;52089;51.362;-2.384;2022-09-09T05:40:14;14.30;99.90
65048;DHT22;52089;51.362;-2.384;2022-09-09T05:43:56;14.30;99.90
65048;DHT22;52089;51.362;-2.384;2022-09-09T05:47:37;14.20;99.90
65048;DHT22;52089;51.362;-2.384;2022-09-09T05:51:24;14.30;99.90
65048;DHT22;52089;51.362;-2.384;2022-09-09T05:55:07;14.30;99.90
65048;DHT22;52089;51.362;-2.384;2022-09-09T05:58:49;14.20;99.90
65048;DHT22;52089;51.362;-2.384;2022-09-09T06:02:31;14.30;99.90
65048;DHT22;52089;51.362;-2.384;2022-09-09T06:06:21;14.20;99.90
65048;DHT22;52089;51.362;-2.384;2022-09-09T06:10:04;14.10;99.90
65048;DHT22;52089;51.362;-2.384;2022-09-09T06:13:46;14.10;99.90
65048;DHT22;52089;51.362;-2.384;2022-09-09T06:17:29;14.10;99.90
65048;DHT22;52089;51.362;-2.384;2022-09-09T06:21:26;14.20;99.90
65048;DHT22;52089;51.362;-2.384;2022-09-09T06:25:08;14.20;99.90
65048;DHT22;52089;51.362;-2.384;2022-09-09T06:28:52;14.30;99.90
65048;DHT22;52089;51.362;-2.384;2022-09-09T06:32:34;14.40;99.90
65048;DHT22;52089;51.362;-2.384;2022-09-09T06:36:37;14.50;99.90
65048;DHT22;52089;51.362;-2.384;2022-09-09T06:40:19;14.60;99.90
65048;DHT22;52089;51.362;-2.384;2022-09-09T06:44:02;14.70;99.90
65048;DHT22;52089;51.362;-2.384;2022-09-09T06:47:44;14.80;99.90
65048;DHT22;52089;51.362;-2.384;2022-09-09T06:51:34;14.90;99.90
65048;DHT22;52089;51.362;-2.384;2022-09-09T06:55:16;14.90;99.90
65048;DHT22;52089;51.362;-2.384;2022-09-09T06:59:01;14.80;99.90
65048;DHT22;52089;51.362;-2.384;2022-09-09T07:02:45;14.90;99.90
65048;DHT22;52089;51.362;-2.384;2022-09-09T07:06:28;14.90;99.90
65048;DHT22;52089;51.362;-2.384;2022-09-09T07:10:11;15.00;99.90
65048;DHT22;52089;51.362;-2.384;2022-09-09T07:13:54;15.00;99.90
65048;DHT22;52089;51.362;-2.384;2022-09-09T07:17:35;15.00;99.90
65048;DHT22;52089;51.362;-2.384;2022-09-09T07:21:18;15.00;99.90
65048;DHT22;52089;51.362;-2.384;2022-09-09T07:25:00;14.90;99.90
65048;DHT22;52089;51.362;-2.384;2022-09-09T07:28:43;15.00;99.90
65048;DHT22;52089;51.362;-2.384;2022-09-09T07:32:25;15.00;99.90
65048;DHT22;52089;51.362;-2.384;2022-09-09T07:36:30;15.10;99.90
65048;DHT22;52089;51.362;-2.384;2022-09-09T07:40:14;15.30;99.90
65048;DHT22;52089;51.362;-2.384;2022-09-09T07:43:56;15.50;99.90
65048;DHT22;52089;51.362;-2.384;2022-09-09T07:47:38;15.70;99.90
65048;DHT22;52089;51.362;-2.384;2022-09-09T07:51:25;15.90;99.90
65048;DHT22;52089;51.362;-2.384;2022-09-09T07:55:07;16.10;99.90
65048;DHT22;52089;51.362;-2.384;2022-09-09T07:58:52;16.30;99.90
65048;DHT22;52089;51.362;-2.384;2022-09-09T08:02:34;16.30;99.90
65048;DHT22;52089;51.362;-2.384;2022-09-09T08:06:16;16.30;99.90
65048;DHT22;52089;51.362;-2.384;2022-09-09T08:09:58;16.30;99.90
65048;DHT22;52089;51.362;-2.384;2022-09-09T08:13:40;16.30;99.90
65048;DHT22;52089;51.362;-2.384;2022-09-09T08:17:21;16.30;99.90
65048;DHT22;52089;51.362;-2.384;2022-09-09T08:21:08;16.30;99.90
65048;DHT22;52089;51.362;-2.384;2022-09-09T08:24:50;16.70;99.90
65048;DHT22;52089;51.362;-2.384;2022-09-09T08:36:34;17.50;99.90
65048;DHT22;52089;51.362;-2.384;2022-09-09T08:40:26;17.70;99.90
65048;DHT22;52089;51.362;-2.384;2022-09-09T08:51:59;17.80;99.90
65048;DHT22;52089;51.362;-2.384;2022-09-09T08:55:54;17.70;99.90
65048;DHT22;52089;51.362;-2.384;2022-09-09T08:59:37;17.70;99.90
65048;DHT22;52089;51.362;-2.384;2022-09-09T09:11:24;17.40;99.90
65048;DHT22;52089;51.362;-2.384;2022-09-09T09:15:16;17.30;99.90
65048;DHT22;52089;51.362;-2.384;2022-09-09T09:19:00;17.30;99.90
65048;DHT22;52089;51.362;-2.384;2022-09-09T09:22:50;17.20;99.90
65048;DHT22;52089;51.362;-2.384;2022-09-09T09:26:34;17.20;99.90
65048;DHT22;52089;51.362;-2.384;2022-09-09T09:30:26;17.20;99.90
65048;DHT22;52089;51.362;-2.384;2022-09-09T09:34:11;17.30;99.90
65048;DHT22;52089;51.362;-2.384;2022-09-09T09:37:53;17.30;99.90
65048;DHT22;52089;51.362;-2.384;2022-09-09T09:41:56;17.30;99.90
65048;DHT22;52089;51.362;-2.384;2022-09-09T09:45:43;17.10;99.90
65048;DHT22;52089;51.362;-2.384;2022-09-09T09:49:55;17.00;99.90
65048;DHT22;52089;51.362;-2.384;2022-09-09T09:53:38;16.80;99.90
65048;DHT22;52089;51.362;-2.384;2022-09-09T09:57:24;16.70;99.90
65048;DHT22;52089;51.362;-2.384;2022-09-09T10:01:24;16.60;99.90
65048;DHT22;52089;51.362;-2.384;2022-09-09T10:09:26;16.40;99.90
65048;DHT22;52089;51.362;-2.384;2022-09-09T10:13:15;16.50;99.90
65048;DHT22;52089;51.362;-2.384;2022-09-09T10:17:59;16.50;99.90
65048;DHT22;52089;51.362;-2.384;2022-09-09T10:29:57;16.50;99.90
65048;DHT22;52089;51.362;-2.384;2022-09-09T10:33:57;16.40;99.90
65048;DHT22;52089;51.362;-2.384;2022-09-09T10:41:55;16.50;99.90
65048;DHT22;52089;51.362;-2.384;2022-09-09T10:45:45;16.70;99.90
65048;DHT22;52089;51.362;-2.384;2022-09-09T10:49:52;16.90;99.90
65048;DHT22;52089;51.362;-2.384;2022-09-09T10:57:38;17.10;99.90
65048;DHT22;52089;51.362;-2.384;2022-09-09T11:01:27;17.20;99.90
65048;DHT22;52089;51.362;-2.384;2022-09-09T11:06:04;17.20;99.90
65048;DHT22;52089;51.362;-2.384;2022-09-09T11:09:41;17.30;99.90
65048;DHT22;52089;51.362;-2.384;2022-09-09T11:17:50;18.10;99.90
65048;DHT22;52089;51.362;-2.384;2022-09-09T11:21:38;18.30;99.90
65048;DHT22;52089;51.362;-2.384;2022-09-09T11:25:32;18.30;99.90
65048;DHT22;52089;51.362;-2.384;2022-09-09T11:41:47;21.40;99.90
65048;DHT22;52089;51.362;-2.384;2022-09-09T11:45:29;22.60;99.90
65048;DHT22;52089;51.362;-2.384;2022-09-09T11:56:55;23.60;99.90
65048;DHT22;52089;51.362;-2.384;2022-09-09T12:00:42;23.30;99.90
65048;DHT22;52089;51.362;-2.384;2022-09-09T12:04:33;23.70;99.90
65048;DHT22;52089;51.362;-2.384;2022-09-09T12:08:26;24.00;99.90
65048;DHT22;52089;51.362;-2.384;2022-09-09T12:16:00;23.90;99.90
65048;DHT22;52089;51.362;-2.384;2022-09-09T12:19:43;23.90;99.90
65048;DHT22;52089;51.362;-2.384;2022-09-09T12:23:32;23.60;99.90
65048;DHT22;52089;51.362;-2.384;2022-09-09T12:27:31;23.20;99.90
65048;DHT22;52089;51.362;-2.384;2022-09-09T12:31:44;23.10;99.90
65048;DHT22;52089;51.362;-2.384;2022-09-09T12:35:28;23.60;99.90
65048;DHT22;52089;51.362;-2.384;2022-09-09T12:39:19;24.50;99.90
65048;DHT22;52089;51.362;-2.384;2022-09-09T12:43:20;24.50;99.90
65048;DHT22;52089;51.362;-2.384;2022-09-09T12:47:03;25.20;99.90
65048;DHT22;52089;51.362;-2.384;2022-09-09T12:50:48;25.30;99.90
65048;DHT22;52089;51.362;-2.384;2022-09-09T12:54:36;24.80;99.90
65048;DHT22;52089;51.362;-2.384;2022-09-09T12:58:19;24.10;99.90
65048;DHT22;52089;51.362;-2.384;2022-09-09T13:02:02;23.10;99.90
65048;DHT22;52089;51.362;-2.384;2022-09-09T13:05:44;22.30;99.90
65048;DHT22;52089;51.362;-2.384;2022-09-09T13:09:28;22.10;99.90
65048;DHT22;52089;51.362;-2.384;2022-09-09T13:13:18;22.00;99.90
65048;DHT22;52089;51.362;-2.384;2022-09-09T13:17:03;22.10;99.90
65048;DHT22;52089;51.362;-2.384;2022-09-09T13:20:48;22.20;99.90
65048;DHT22;52089;51.362;-2.384;2022-09-09T13:24:31;22.00;99.90
65048;DHT22;52089;51.362;-2.384;2022-09-09T13:28:22;21.80;99.90
65048;DHT22;52089;51.362;-2.384;2022-09-09T13:32:19;21.60;99.90
65048;DHT22;52089;51.362;-2.384;2022-09-09T13:36:08;21.30;99.90
65048;DHT22;52089;51.362;-2.384;2022-09-09T13:39:52;21.20;99.90
65048;DHT22;52089;51.362;-2.384;2022-09-09T13:43:43;21.50;99.90
65048;DHT22;52089;51.362;-2.384;2022-09-09T13:47:32;22.00;99.90
65048;DHT22;52089;51.362;-2.384;2022-09-09T13:51:32;22.60;99.90
65048;DHT22;52089;51.362;-2.384;2022-09-09T13:55:14;23.00;99.90
65048;DHT22;52089;51.362;-2.384;2022-09-09T13:58:56;22.80;99.90
65048;DHT22;52089;51.362;-2.384;2022-09-09T14:02:39;22.40;99.90
65048;DHT22;52089;51.362;-2.384;2022-09-09T14:06:21;22.00;99.90
65048;DHT22;52089;51.362;-2.384;2022-09-09T14:10:07;21.60;99.90
65048;DHT22;52089;51.362;-2.384;2022-09-09T14:13:49;21.30;99.90
65048;DHT22;52089;51.362;-2.384;2022-09-09T14:17:31;21.10;99.90
65048;DHT22;52089;51.362;-2.384;2022-09-09T14:21:13;21.10;99.90
65048;DHT22;52089;51.362;-2.384;2022-09-09T14:24:57;21.20;99.90
65048;DHT22;52089;51.362;-2.384;2022-09-09T14:28:39;21.50;99.90
65048;DHT22;52089;51.362;-2.384;2022-09-09T14:32:37;21.90;99.90
65048;DHT22;52089;51.362;-2.384;2022-09-09T14:36:19;22.30;99.90
65048;DHT22;52089;51.362;-2.384;2022-09-09T14:40:01;22.70;99.90
65048;DHT22;52089;51.362;-2.384;2022-09-09T14:43:44;23.00;99.90
65048;DHT22;52089;51.362;-2.384;2022-09-09T14:47:26;23.20;99.90
65048;DHT22;52089;51.362;-2.384;2022-09-09T14:51:09;23.10;99.90
65048;DHT22;52089;51.362;-2.384;2022-09-09T14:54:51;23.20;99.90
65048;DHT22;52089;51.362;-2.384;2022-09-09T14:58:33;24.60;99.90
65048;DHT22;52089;51.362;-2.384;2022-09-09T15:02:16;25.20;99.90
65048;DHT22;52089;51.362;-2.384;2022-09-09T15:05:58;26.20;99.90
65048;DHT22;52089;51.362;-2.384;2022-09-09T15:09:39;26.40;99.90
65048;DHT22;52089;51.362;-2.384;2022-09-09T15:13:21;26.30;99.90
65048;DHT22;52089;51.362;-2.384;2022-09-09T15:17:03;25.90;99.90
65048;DHT22;52089;51.362;-2.384;2022-09-09T15:20:45;25.10;99.90
65048;DHT22;52089;51.362;-2.384;2022-09-09T15:24:27;24.50;99.90
65048;DHT22;52089;51.362;-2.384;2022-09-09T15:28:09;24.40;99.90
65048;DHT22;52089;51.362;-2.384;2022-09-09T15:31:53;24.10;99.90
65048;DHT22;52089;51.362;-2.384;2022-09-09T15:35:35;24.50;99.90
65048;DHT22;52089;51.362;-2.384;2022-09-09T15:39:18;25.50;99.90
65048;DHT22;52089;51.362;-2.384;2022-09-09T15:43:00;26.30;99.90
65048;DHT22;52089;51.362;-2.384;2022-09-09T15:46:48;26.70;99.90
65048;DHT22;52089;51.362;-2.384;2022-09-09T15:50:30;27.30;99.90
65048;DHT22;52089;51.362;-2.384;2022-09-09T15:54:18;27.60;99.90
65048;DHT22;52089;51.362;-2.384;2022-09-09T15:58:01;27.30;99.90
65048;DHT22;52089;51.362;-2.384;2022-09-09T16:01:43;27.00;99.90
65048;DHT22;52089;51.362;-2.384;2022-09-09T16:05:26;26.50;99.90
65048;DHT22;52089;51.362;-2.384;2022-09-09T16:09:07;25.90;99.90
65048;DHT22;52089;51.362;-2.384;2022-09-09T16:12:49;25.10;99.90
65048;DHT22;52089;51.362;-2.384;2022-09-09T16:16:33;24.20;99.90
65048;DHT22;52089;51.362;-2.384;2022-09-09T16:20:16;23.60;99.90
65048;DHT22;52089;51.362;-2.384;2022-09-09T16:24:02;23.40;99.90
65048;DHT22;52089;51.362;-2.384;2022-09-09T16:27:44;23.00;99.90
65048;DHT22;52089;51.362;-2.384;2022-09-09T16:31:27;22.50;99.90
65048;DHT22;52089;51.362;-2.384;2022-09-09T16:35:09;22.10;99.90
65048;DHT22;52089;51.362;-2.384;2022-09-09T16:38:55;21.60;99.90
65048;DHT22;52089;51.362;-2.384;2022-09-09T16:42:39;21.20;99.90
65048;DHT22;52089;51.362;-2.384;2022-09-09T16:46:21;21.00;99.90
65048;DHT22;52089;51.362;-2.384;2022-09-09T16:50:04;20.90;99.90
65048;DHT22;52089;51.362;-2.384;2022-09-09T16:53:46;21.60;99.90
65048;DHT22;52089;51.362;-2.384;2022-09-09T16:57:28;22.40;99.90
65048;DHT22;52089;51.362;-2.384;2022-09-09T17:01:11;22.60;99.90
65048;DHT22;52089;51.362;-2.384;2022-09-09T17:04:55;22.70;99.90
65048;DHT22;52089;51.362;-2.384;2022-09-09T17:08:38;22.90;99.90
65048;DHT22;52089;51.362;-2.384;2022-09-09T17:12:20;23.00;99.90
65048;DHT22;52089;51.362;-2.384;2022-09-09T17:16:04;23.00;99.90
65048;DHT22;52089;51.362;-2.384;2022-09-09T17:19:46;23.00;99.90
65048;DHT22;52089;51.362;-2.384;2022-09-09T17:23:28;22.70;99.90
65048;DHT22;52089;51.362;-2.384;2022-09-09T17:27:10;22.30;99.90
65048;DHT22;52089;51.362;-2.384;2022-09-09T17:30:53;21.70;99.90
65048;DHT22;52089;51.362;-2.384;2022-09-09T17:34:35;21.40;99.90
65048;DHT22;52089;51.362;-2.384;2022-09-09T17:38:17;21.00;99.90
65048;DHT22;52089;51.362;-2.384;2022-09-09T17:41:59;20.70;99.90
65048;DHT22;52089;51.362;-2.384;2022-09-09T17:45:41;20.50;99.90
65048;DHT22;52089;51.362;-2.384;2022-09-09T17:49:23;20.20;99.90
65048;DHT22;52089;51.362;-2.384;2022-09-09T17:53:04;20.10;99.90
65048;DHT22;52089;51.362;-2.384;2022-09-09T17:56:47;19.90;99.90
65048;DHT22;52089;51.362;-2.384;2022-09-09T18:00:29;19.80;99.90
65048;DHT22;52089;51.362;-2.384;2022-09-09T18:04:13;19.70;99.90
65048;DHT22;52089;51.362;-2.384;2022-09-09T18:07:55;19.60;99.90
65048;DHT22;52089;51.362;-2.384;2022-09-09T18:11:40;19.50;99.90
65048;DHT22;52089;51.362;-2.384;2022-09-09T18:15:23;19.30;99.90
65048;DHT22;52089;51.362;-2.384;2022-09-09T18:19:27;19.10;99.90
65048;DHT22;52089;51.362;-2.384;2022-09-09T18:23:11;18.90;99.90
65048;DHT22;52089;51.362;-2.384;2022-09-09T18:26:53;18.80;99.90
65048;DHT22;52089;51.362;-2.384;2022-09-09T18:30:38;18.70;99.90
65048;DHT22;52089;51.362;-2.384;2022-09-09T18:34:21;18.50;99.90
65048;DHT22;52089;51.362;-2.384;2022-09-09T18:38:03;18.50;99.90
65048;DHT22;52089;51.362;-2.384;2022-09-09T18:41:47;18.40;99.90
65048;DHT22;52089;51.362;-2.384;2022-09-09T18:45:30;18.30;99.90
65048;DHT22;52089;51.362;-2.384;2022-09-09T18:49:12;18.30;99.90
65048;DHT22;52089;51.362;-2.384;2022-09-09T18:52:55;18.20;99.90
65048;DHT22;52089;51.362;-2.384;2022-09-09T18:56:37;18.20;99.90
65048;DHT22;52089;51.362;-2.384;2022-09-09T19:00:19;18.10;99.90
65048;DHT22;52089;51.362;-2.384;2022-09-09T19:04:05;18.10;99.90
65048;DHT22;52089;51.362;-2.384;2022-09-09T19:07:47;18.00;99.90
65048;DHT22;52089;51.362;-2.384;2022-09-09T19:11:29;17.90;99.90
65048;DHT22;52089;51.362;-2.384;2022-09-09T19:15:12;17.80;99.90
65048;DHT22;52089;51.362;-2.384;2022-09-09T19:18:54;17.80;99.90
65048;DHT22;52089;51.362;-2.384;2022-09-09T19:22:38;17.70;99.90
65048;DHT22;52089;51.362;-2.384;2022-09-09T19:26:20;17.60;99.90
65048;DHT22;52089;51.362;-2.384;2022-09-09T19:30:02;17.50;99.90
65048;DHT22;52089;51.362;-2.384;2022-09-09T19:33:45;17.50;99.90
65048;DHT22;52089;51.362;-2.384;2022-09-09T19:37:27;17.40;99.90
65048;DHT22;52089;51.362;-2.384;2022-09-09T19:41:12;17.30;99.90
65048;DHT22;52089;51.362;-2.384;2022-09-09T19:44:54;17.30;99.90
65048;DHT22;52089;51.362;-2.384;2022-09-09T19:48:39;17.10;99.90
65048;DHT22;52089;51.362;-2.384;2022-09-09T19:52:21;17.10;99.90
65048;DHT22;52089;51.362;-2.384;2022-09-09T19:56:04;17.10;99.90
65048;DHT22;52089;51.362;-2.384;2022-09-09T19:59:46;17.20;99.90
65048;DHT22;52089;51.362;-2.384;2022-09-09T20:03:27;17.20;99.90
65048;DHT22;52089;51.362;-2.384;2022-09-09T20:07:09;17.20;99.90
65048;DHT22;52089;51.362;-2.384;2022-09-09T20:10:52;17.20;99.90
65048;DHT22;52089;51.362;-2.384;2022-09-09T20:14:35;17.30;99.90
65048;DHT22;52089;51.362;-2.384;2022-09-09T20:18:20;17.30;99.90
65048;DHT22;52089;51.362;-2.384;2022-09-09T20:22:02;17.30;99.90
65048;DHT22;52089;51.362;-2.384;2022-09-09T20:25:44;17.20;99.90
65048;DHT22;52089;51.362;-2.384;2022-09-09T20:29:25;17.20;99.90
65048;DHT22;52089;51.362;-2.384;2022-09-09T20:33:07;17.10;99.90
65048;DHT22;52089;51.362;-2.384;2022-09-09T20:36:49;17.00;99.90
65048;DHT22;52089;51.362;-2.384;2022-09-09T20:40:35;16.90;99.90
65048;DHT22;52089;51.362;-2.384;2022-09-09T20:44:18;16.80;99.90
65048;DHT22;52089;51.362;-2.384;2022-09-09T20:48:05;16.70;99.90
65048;DHT22;52089;51.362;-2.384;2022-09-09T20:51:48;16.60;99.90
65048;DHT22;52089;51.362;-2.384;2022-09-09T20:55:31;16.50;99.90
65048;DHT22;52089;51.362;-2.384;2022-09-09T20:59:20;16.50;99.90
65048;DHT22;52089;51.362;-2.384;2022-09-09T21:03:02;16.40;99.90
65048;DHT22;52089;51.362;-2.384;2022-09-09T21:06:45;16.30;99.90
65048;DHT22;52089;51.362;-2.384;2022-09-09T21:10:27;16.20;99.90
65048;DHT22;52089;51.362;-2.384;2022-09-09T21:14:09;16.10;99.90
65048;DHT22;52089;51.362;-2.384;2022-09-09T21:17:51;16.00;99.90
65048;DHT22;52089;51.362;-2.384;2022-09-09T21:21:34;15.90;99.90
65048;DHT22;52089;51.362;-2.384;2022-09-09T21:25:16;15.90;99.90
65048;DHT22;52089;51.362;-2.384;2022-09-09T21:28:58;15.80;99.90
65048;DHT22;52089;51.362;-2.384;2022-09-09T21:32:40;15.80;99.90
65048;DHT22;52089;51.362;-2.384;2022-09-09T21:36:22;15.70;99.90
65048;DHT22;52089;51.362;-2.384;2022-09-09T21:40:05;15.70;99.90
65048;DHT22;52089;51.362;-2.384;2022-09-09T21:43:51;15.60;99.90
65048;DHT22;52089;51.362;-2.384;2022-09-09T21:47:33;15.60;99.90
65048;DHT22;52089;51.362;-2.384;2022-09-09T21:51:16;15.50;99.90
65048;DHT22;52089;51.362;-2.384;2022-09-09T21:54:58;15.50;99.90
65048;DHT22;52089;51.362;-2.384;2022-09-09T21:58:39;15.50;99.90
65048;DHT22;52089;51.362;-2.384;2022-09-09T22:02:23;15.40;99.90
65048;DHT22;52089;51.362;-2.384;2022-09-09T22:06:06;15.40;99.90
65048;DHT22;52089;51.362;-2.384;2022-09-09T22:09:49;15.40;99.90
65048;DHT22;52089;51.362;-2.384;2022-09-09T22:13:30;15.30;99.90
65048;DHT22;52089;51.362;-2.384;2022-09-09T22:17:13;15.20;99.90
65048;DHT22;52089;51.362;-2.384;2022-09-09T22:20:55;15.20;99.90
65048;DHT22;52089;51.362;-2.384;2022-09-09T22:24:37;15.20;99.90
65048;DHT22;52089;51.362;-2.384;2022-09-09T22:28:19;15.10;99.90
65048;DHT22;52089;51.362;-2.384;2022-09-09T22:32:01;15.10;99.90
65048;DHT22;52089;51.362;-2.384;2022-09-09T22:35:43;15.00;99.90
65048;DHT22;52089;51.362;-2.384;2022-09-09T22:39:25;15.00;99.90
65048;DHT22;52089;51.362;-2.384;2022-09-09T22:43:16;14.90;99.90
65048;DHT22;52089;51.362;-2.384;2022-09-09T22:46:58;14.80;99.90
65048;DHT22;52089;51.362;-2.384;2022-09-09T22:50:41;14.80;99.90
65048;DHT22;52089;51.362;-2.384;2022-09-09T22:54:23;14.70;99.90
65048;DHT22;52089;51.362;-2.384;2022-09-09T22:58:05;14.60;99.90
65048;DHT22;52089;51.362;-2.384;2022-09-09T23:01:48;14.60;99.90
65048;DHT22;52089;51.362;-2.384;2022-09-09T23:05:32;14.60;99.90
65048;DHT22;52089;51.362;-2.384;2022-09-09T23:09:23;14.60;99.90
65048;DHT22;52089;51.362;-2.384;2022-09-09T23:13:05;14.50;99.90
65048;DHT22;52089;51.362;-2.384;2022-09-09T23:16:47;14.50;99.90
65048;DHT22;52089;51.362;-2.384;2022-09-09T23:20:34;14.40;99.90
65048;DHT22;52089;51.362;-2.384;2022-09-09T23:24:17;14.40;99.90
65048;DHT22;52089;51.362;-2.384;2022-09-09T23:27:59;14.30;99.90
65048;DHT22;52089;51.362;-2.384;2022-09-09T23:31:43;14.30;99.90
65048;DHT22;52089;51.362;-2.384;2022-09-09T23:35:26;14.20;99.90
65048;DHT22;52089;51.362;-2.384;2022-09-09T23:39:09;14.20;99.90
65048;DHT22;52089;51.362;-2.384;2022-09-09T23:42:52;14.10;99.90
65048;DHT22;52089;51.362;-2.384;2022-09-09T23:46:35;14.10;99.90
65048;DHT22;52089;51.362;-2.384;2022-09-09T23:50:17;14.10;99.90
65048;DHT22;52089;51.362;-2.384;2022-09-09T23:54:01;14.00;99.90
65048;DHT22;52089;51.362;-2.384;2022-09-09T23:57:45;14.00;99.90
